Portada
METAR-TAF:

METAR-TAF

Aeroports :

Ghardaïa, Algèria

latitud: 32-23N, longitud: 003-49E, altitud: 450 m

Observació

L'informe es va fer fa 1 hora i 3 minuts, a les 08:00 UTC
Vent 10 kt del Nord
Temperatura 11°C
Humitat 58%
Pressió 1027 hPa
Visibilitat 10 km o més
sense núvols per sota de 1500 mi sense presència de cumulonimbus.

METAR: DAUG 210800Z 36010KT CAVOK 11/03 Q1027

Hora: 10:03 (09:03 UTC)

Pronòstic

L'informe es va fer fa 4 hores i 3 minuts, a les 05:00 UTC
Pronòstic vàlid del 21 a les 06 UTC al 22 a les 06 UTC
Vent 8 kt del Est/Nord-Est
Visibilitat 10 km o més
sense núvols per sota de 1500 mi sense presència de cumulonimbus.

TAF: DAUG 210500Z 2106/2206 06008KT CAVOK

Observacions i pronòstics meteorològics de més de 4000 aeroports (METAR i TAF).

Les estacions disponibles són els punts grocs i vermells al mapa.

Posi el ratolí al punt desitjat per veure el nom de l'estació.

Feu clic per veure les observacions i els pronòstics meteorològics.

Per canviar el mapa: feu clic els botons verds amb una creu de color negre per apropar; al botó verd amb un guió per allunyar la imatge; o en les fletxes verdes per a mapes adjacents.


METAR-TAF: